createdAt,value
2023-03-29T00:02:53.961Z,32.55
2023-03-29T00:06:54.853Z,31.44
2023-03-29T00:10:54.878Z,31.15
2023-03-29T00:14:54.910Z,30.91
2023-03-29T00:18:55.881Z,30.71
2023-03-29T00:22:55.186Z,30.58
2023-03-29T00:26:55.224Z,30.50
2023-03-29T00:30:55.307Z,30.40
2023-03-29T00:34:55.272Z,30.35
2023-03-29T00:38:55.265Z,30.29
2023-03-29T00:42:55.282Z,30.26
2023-03-29T00:46:55.513Z,30.23
2023-03-29T00:50:55.562Z,30.15
2023-03-29T00:54:55.564Z,30.17
2023-03-29T00:58:55.586Z,30.13
2023-03-29T01:02:55.683Z,30.18
2023-03-29T01:06:55.739Z,30.14
2023-03-29T01:10:55.641Z,30.13
2023-03-29T01:14:55.864Z,30.09
2023-03-29T01:18:55.899Z,30.11
2023-03-29T01:22:55.949Z,30.10
2023-03-29T01:26:55.943Z,30.10
2023-03-29T01:30:55.967Z,30.08
2023-03-29T01:34:56.005Z,30.05
2023-03-29T01:38:56.058Z,30.06
2023-03-29T01:42:56.241Z,30.06
2023-03-29T01:46:56.243Z,30.05
2023-03-29T01:50:56.267Z,30.04
2023-03-29T01:54:56.314Z,30.06
2023-03-29T01:58:56.330Z,30.05
2023-03-29T02:02:56.550Z,30.10
2023-03-29T02:06:56.356Z,30.06
2023-03-29T02:10:56.523Z,30.04
2023-03-29T02:14:56.717Z,30.07
2023-03-29T02:18:56.949Z,30.09
2023-03-29T02:22:57.146Z,30.10
2023-03-29T02:26:57.412Z,30.10
2023-03-29T02:30:57.705Z,30.11
2023-03-29T02:34:57.685Z,30.12
2023-03-29T02:38:57.694Z,30.12
2023-03-29T02:42:57.759Z,30.08
2023-03-29T02:46:57.796Z,30.11
2023-03-29T02:50:57.760Z,30.14
2023-03-29T02:54:57.762Z,30.16
2023-03-29T02:58:57.881Z,30.14
2023-03-29T03:03:00.553Z,30.10
2023-03-29T03:06:57.875Z,30.10
2023-03-29T03:14:57.211Z,30.07
2023-03-29T03:22:57.201Z,30.01
2023-03-29T03:30:57.273Z,29.96
2023-03-29T03:38:57.285Z,29.86
2023-03-29T03:46:57.559Z,29.77
2023-03-29T03:54:58.029Z,29.73
2023-03-29T04:02:58.593Z,29.67
2023-03-29T04:10:23.640Z,29.60
2023-03-29T04:14:24.570Z,29.55
2023-03-29T04:18:24.605Z,29.50
2023-03-29T04:22:24.390Z,29.47
2023-03-29T04:26:24.332Z,29.43
2023-03-29T04:30:24.250Z,29.42
2023-03-29T04:34:24.198Z,29.40
2023-03-29T04:38:24.399Z,29.42
2023-03-29T04:42:24.569Z,29.42
2023-03-29T04:46:24.814Z,29.41
2023-03-29T04:50:25.090Z,29.40
2023-03-29T04:54:25.242Z,29.38
2023-03-29T04:58:29.582Z,29.39
2023-03-29T05:02:25.388Z,29.42
2023-03-29T05:06:25.421Z,29.38
2023-03-29T05:10:25.288Z,29.18
2023-03-29T05:14:25.188Z,28.88
2023-03-29T05:18:25.112Z,28.80
2023-03-29T05:22:25.107Z,29.67
2023-03-29T05:26:25.041Z,29.91
2023-03-29T05:30:24.986Z,29.99
2023-03-29T05:34:25.439Z,30.03
2023-03-29T05:38:24.906Z,27.75
2023-03-29T05:42:24.960Z,30.13
2023-03-29T05:46:24.976Z,30.37
2023-03-29T05:50:25.446Z,30.77
2023-03-29T05:54:24.853Z,30.86
2023-03-29T05:58:25.526Z,31.43
2023-03-29T06:02:25.813Z,31.39
2023-03-29T06:06:25.432Z,31.13
2023-03-29T06:10:25.447Z,30.78
2023-03-29T06:14:25.924Z,30.11
2023-03-29T06:18:26.022Z,29.97
2023-03-29T06:22:33.373Z,30.12
2023-03-29T06:26:25.982Z,29.42
2023-03-29T06:30:25.533Z,29.13
2023-03-29T06:34:26.100Z,28.56
2023-03-29T06:38:25.954Z,28.07
2023-03-29T06:42:25.601Z,28.93
2023-03-29T06:46:25.527Z,30.08
2023-03-29T06:50:26.095Z,30.67
2023-03-29T06:54:25.980Z,31.09
2023-03-29T06:58:25.994Z,31.32
2023-03-29T07:02:26.817Z,30.61
2023-03-29T07:06:25.965Z,29.20
2023-03-29T07:10:26.093Z,28.90
2023-03-29T07:14:26.000Z,29.27
2023-03-29T07:18:25.946Z,29.15
2023-03-29T07:22:25.965Z,29.39
2023-03-29T07:26:29.029Z,29.13
2023-03-29T07:30:26.072Z,29.40
2023-03-29T07:34:26.034Z,29.29
2023-03-29T07:38:27.023Z,29.77
2023-03-29T07:42:26.689Z,29.65
2023-03-29T07:46:26.612Z,29.28
2023-03-29T07:50:26.548Z,29.47
2023-03-29T07:54:26.468Z,29.80
2023-03-29T07:58:26.455Z,30.76
2023-03-29T08:02:26.520Z,31.08
2023-03-29T08:06:26.963Z,31.65
2023-03-29T08:10:27.014Z,31.90
2023-03-29T08:14:26.490Z,31.99
2023-03-29T08:18:26.886Z,32.38
2023-03-29T08:22:26.287Z,32.60
2023-03-29T08:26:26.469Z,32.47
2023-03-29T08:30:26.559Z,32.97
2023-03-29T08:34:26.426Z,32.71
2023-03-29T08:38:26.908Z,33.11
2023-03-29T08:42:27.012Z,33.10
2023-03-29T08:46:33.106Z,32.85
2023-03-29T08:50:26.639Z,33.02
2023-03-29T08:54:25.622Z,33.11
2023-03-29T08:58:26.526Z,33.38
2023-03-29T09:02:27.019Z,33.40
2023-03-29T09:06:27.003Z,33.26
2023-03-29T09:10:26.983Z,33.31
2023-03-29T09:14:27.117Z,33.41
2023-03-29T09:18:27.024Z,33.55
2023-03-29T09:22:26.804Z,33.56
2023-03-29T09:26:27.136Z,33.43
2023-03-29T09:30:27.014Z,33.42
2023-03-29T09:34:26.985Z,33.28
2023-03-29T09:38:26.882Z,33.28
2023-03-29T09:42:26.992Z,33.06
2023-03-29T09:46:27.011Z,33.14
2023-03-29T09:50:31.318Z,32.89
2023-03-29T09:54:27.116Z,32.90
2023-03-29T09:58:26.528Z,32.87
2023-03-29T10:02:26.581Z,32.81
2023-03-29T10:06:26.628Z,32.83
2023-03-29T10:10:26.555Z,33.13
2023-03-29T10:14:26.537Z,33.33
2023-03-29T10:18:25.933Z,33.47
2023-03-29T10:22:26.176Z,33.33
2023-03-29T10:26:26.064Z,33.49
2023-03-29T10:30:26.034Z,33.61
2023-03-29T10:34:26.275Z,33.67
2023-03-29T10:38:25.442Z,33.96
2023-03-29T10:42:25.570Z,34.05
2023-03-29T10:46:25.553Z,34.20
2023-03-29T10:50:25.521Z,34.32
2023-03-29T10:54:25.545Z,34.45
2023-03-29T10:58:25.611Z,34.41
2023-03-29T11:02:25.619Z,34.62
2023-03-29T11:06:25.556Z,34.60
2023-03-29T11:10:25.544Z,34.69
2023-03-29T11:14:25.404Z,34.84
2023-03-29T11:18:25.554Z,34.99
2023-03-29T11:22:25.558Z,34.56
2023-03-29T11:26:25.579Z,32.57
2023-03-29T11:30:25.295Z,31.78
2023-03-29T11:34:25.598Z,31.22
2023-03-29T11:38:25.581Z,31.50
2023-03-29T11:42:26.798Z,31.01
2023-03-29T11:46:26.096Z,30.70
2023-03-29T11:50:26.104Z,31.29
2023-03-29T11:54:26.047Z,30.93
2023-03-29T11:58:26.074Z,31.73
2023-03-29T12:02:26.190Z,31.83
2023-03-29T12:06:26.094Z,32.18
2023-03-29T12:10:25.720Z,32.33
2023-03-29T12:14:27.826Z,32.69
2023-03-29T12:18:26.084Z,32.95
2023-03-29T12:22:25.571Z,33.36
2023-03-29T12:26:25.552Z,33.55
2023-03-29T12:30:25.552Z,33.78
2023-03-29T12:34:25.582Z,33.88
2023-03-29T12:38:26.054Z,34.06
2023-03-29T12:42:25.556Z,34.29
2023-03-29T12:46:25.667Z,34.39
2023-03-29T12:50:25.655Z,34.45
2023-03-29T12:54:27.558Z,34.77
2023-03-29T12:58:25.093Z,34.44
2023-03-29T13:02:25.184Z,34.51
2023-03-29T13:06:25.091Z,35.24
2023-03-29T13:10:24.787Z,35.41
2023-03-29T13:14:25.087Z,35.72
2023-03-29T13:18:25.075Z,35.72
2023-03-29T13:22:25.102Z,35.58
2023-03-29T13:26:24.556Z,35.48
2023-03-29T13:30:25.075Z,35.16
2023-03-29T13:34:24.947Z,34.93
2023-03-29T13:38:26.114Z,34.80
2023-03-29T13:42:25.326Z,34.64
2023-03-29T13:46:25.671Z,34.47
2023-03-29T13:50:26.111Z,34.48
2023-03-29T13:54:25.934Z,34.36
2023-03-29T13:58:26.103Z,34.27
2023-03-29T14:02:26.171Z,34.25
2023-03-29T14:06:26.122Z,34.23
2023-03-29T14:10:26.175Z,34.13
2023-03-29T14:14:26.121Z,34.10
2023-03-29T14:18:25.619Z,33.99
2023-03-29T14:22:25.526Z,34.07
2023-03-29T14:26:25.618Z,33.77
2023-03-29T14:30:25.683Z,33.79
2023-03-29T14:34:25.624Z,33.70
2023-03-29T14:38:25.432Z,33.81
2023-03-29T14:42:26.159Z,33.72
2023-03-29T14:46:25.610Z,33.63
2023-03-29T14:50:25.621Z,33.47
2023-03-29T14:54:25.554Z,33.41
2023-03-29T14:58:25.520Z,33.44
2023-03-29T15:02:25.581Z,33.50
2023-03-29T15:06:25.610Z,33.54
2023-03-29T15:10:25.568Z,33.66
2023-03-29T15:14:25.539Z,33.62
2023-03-29T15:18:25.584Z,33.56
2023-03-29T15:22:25.661Z,33.49
2023-03-29T15:26:25.429Z,33.38
2023-03-29T15:30:25.667Z,33.28
2023-03-29T15:34:25.398Z,33.30
2023-03-29T15:38:33.381Z,33.29
2023-03-29T15:42:25.483Z,33.27
2023-03-29T15:46:25.490Z,33.24
2023-03-29T15:50:25.445Z,33.20
2023-03-29T15:54:25.363Z,33.10
2023-03-29T15:58:25.342Z,33.07
2023-03-29T16:02:25.493Z,33.09
2023-03-29T16:06:25.479Z,33.06
2023-03-29T16:10:25.396Z,33.04
2023-03-29T16:14:25.449Z,33.03
2023-03-29T16:18:25.345Z,33.01
2023-03-29T16:22:25.307Z,32.99
2023-03-29T16:26:25.234Z,32.98
2023-03-29T16:30:25.212Z,32.98
2023-03-29T16:34:25.156Z,32.94
2023-03-29T16:38:25.164Z,32.95
2023-03-29T16:42:25.061Z,32.94
2023-03-29T16:46:25.079Z,32.91
2023-03-29T16:50:25.056Z,32.92
2023-03-29T16:54:24.963Z,32.90
2023-03-29T16:58:24.889Z,32.84
2023-03-29T17:02:25.012Z,32.87
2023-03-29T17:06:24.991Z,32.85
2023-03-29T17:10:24.931Z,32.85
2023-03-29T17:14:24.875Z,32.85
2023-03-29T17:18:24.863Z,32.80
2023-03-29T17:22:24.852Z,32.80
2023-03-29T17:26:24.825Z,32.79
2023-03-29T17:30:24.760Z,32.77
2023-03-29T17:34:24.708Z,32.75
2023-03-29T17:38:24.661Z,32.73
2023-03-29T17:42:24.560Z,32.68
2023-03-29T17:46:24.649Z,32.68
2023-03-29T17:50:24.484Z,32.67
2023-03-29T17:54:24.468Z,32.67
2023-03-29T17:58:24.426Z,32.65
2023-03-29T18:02:24.687Z,32.63
2023-03-29T18:06:24.649Z,32.64
2023-03-29T18:10:24.668Z,32.61
2023-03-29T18:14:24.712Z,32.60
2023-03-29T18:18:25.175Z,32.60
2023-03-29T18:22:24.904Z,32.56
2023-03-29T18:26:24.835Z,32.56
2023-03-29T18:30:24.787Z,32.57
2023-03-29T18:34:24.796Z,32.53
2023-03-29T18:38:24.853Z,32.54
2023-03-29T18:42:24.888Z,32.52
2023-03-29T18:46:24.939Z,32.49
2023-03-29T18:50:24.807Z,32.50
2023-03-29T18:54:24.800Z,32.50
2023-03-29T18:58:24.780Z,32.46
2023-03-29T19:02:24.790Z,32.45
2023-03-29T19:06:24.746Z,32.44
2023-03-29T19:10:24.864Z,32.43
2023-03-29T19:14:24.804Z,32.42
2023-03-29T19:18:24.785Z,32.43
2023-03-29T19:22:24.776Z,32.38
2023-03-29T19:26:24.839Z,32.36
2023-03-29T19:30:24.848Z,32.37
2023-03-29T19:34:24.811Z,32.34
2023-03-29T19:38:24.816Z,32.31
2023-03-29T19:42:24.890Z,32.33
2023-03-29T19:46:24.875Z,32.29
2023-03-29T19:50:24.833Z,32.27
2023-03-29T19:54:24.798Z,32.27
2023-03-29T19:58:24.855Z,32.24
2023-03-29T20:02:24.885Z,32.18
2023-03-29T20:06:24.877Z,32.17
2023-03-29T20:10:24.860Z,32.20
2023-03-29T20:14:24.841Z,32.21
2023-03-29T20:18:24.993Z,32.18
2023-03-29T20:22:24.882Z,32.16
2023-03-29T20:26:24.899Z,32.14
2023-03-29T20:30:24.869Z,32.11
2023-03-29T20:34:24.893Z,32.07
2023-03-29T20:38:24.912Z,32.02
2023-03-29T20:42:24.911Z,32.05
2023-03-29T20:46:24.911Z,32.02
2023-03-29T20:50:24.939Z,32.01
2023-03-29T20:54:25.034Z,32.00
2023-03-29T20:58:25.065Z,31.97
2023-03-29T21:02:25.093Z,31.95
2023-03-29T21:06:25.079Z,31.97
2023-03-29T21:10:25.135Z,31.99
2023-03-29T21:14:25.102Z,31.98
2023-03-29T21:18:25.074Z,31.98
2023-03-29T21:22:25.140Z,31.96
2023-03-29T21:26:25.169Z,31.98
2023-03-29T21:30:25.104Z,31.95
2023-03-29T21:34:25.106Z,31.98
2023-03-29T21:38:25.514Z,31.98
2023-03-29T21:42:25.181Z,31.98
2023-03-29T21:46:25.248Z,31.95
2023-03-29T21:50:25.293Z,31.96
2023-03-29T21:54:25.293Z,31.95
2023-03-29T21:58:25.339Z,31.95
2023-03-29T22:02:25.341Z,31.95
2023-03-29T22:06:25.346Z,31.94
2023-03-29T22:10:25.410Z,31.93
2023-03-29T22:14:25.454Z,31.96
2023-03-29T22:18:25.424Z,31.91
2023-03-29T22:22:25.428Z,31.89
2023-03-29T22:26:25.443Z,31.90
2023-03-29T22:30:25.532Z,31.90
2023-03-29T22:34:25.469Z,31.89
2023-03-29T22:38:25.510Z,31.90
2023-03-29T22:42:25.500Z,31.89
2023-03-29T22:46:25.548Z,31.85
2023-03-29T22:50:25.567Z,31.88
2023-03-29T22:54:25.529Z,31.85
2023-03-29T22:58:25.538Z,31.84
2023-03-29T23:02:25.506Z,31.85
